sensor_id;sensor_type;location;lat;lon;timestamp;P1;durP1;ratioP1;P2;durP2;ratioP2
67749;SDS011;54550;48.838;8.828;2023-03-13T00:01:37;30.42;;;4.00;;
67749;SDS011;54550;48.838;8.828;2023-03-13T00:04:07;18.25;;;4.55;;
67749;SDS011;54550;48.838;8.828;2023-03-13T00:06:33;17.33;;;4.53;;
67749;SDS011;54550;48.838;8.828;2023-03-13T00:09:01;13.85;;;3.80;;
67749;SDS011;54550;48.838;8.828;2023-03-13T00:11:32;15.02;;;3.00;;
67749;SDS011;54550;48.838;8.828;2023-03-13T00:13:58;12.70;;;2.90;;
67749;SDS011;54550;48.838;8.828;2023-03-13T00:16:25;19.42;;;4.25;;
67749;SDS011;54550;48.838;8.828;2023-03-13T00:18:52;30.08;;;4.88;;
67749;SDS011;54550;48.838;8.828;2023-03-13T00:21:19;10.23;;;3.80;;
67749;SDS011;54550;48.838;8.828;2023-03-13T00:23:47;25.25;;;4.50;;
67749;SDS011;54550;48.838;8.828;2023-03-13T00:26:14;14.00;;;3.80;;
67749;SDS011;54550;48.838;8.828;2023-03-13T00:28:42;17.60;;;4.32;;
67749;SDS011;54550;48.838;8.828;2023-03-13T00:31:18;25.98;;;3.83;;
67749;SDS011;54550;48.838;8.828;2023-03-13T00:33:50;36.80;;;6.53;;
67749;SDS011;54550;48.838;8.828;2023-03-13T00:36:18;11.93;;;3.50;;
67749;SDS011;54550;48.838;8.828;2023-03-13T00:38:48;26.60;;;3.58;;
67749;SDS011;54550;48.838;8.828;2023-03-13T00:41:16;18.60;;;3.97;;
67749;SDS011;54550;48.838;8.828;2023-03-13T00:43:43;16.65;;;4.32;;
67749;SDS011;54550;48.838;8.828;2023-03-13T00:46:10;14.18;;;3.72;;
67749;SDS011;54550;48.838;8.828;2023-03-13T00:48:36;21.40;;;3.22;;
67749;SDS011;54550;48.838;8.828;2023-03-13T00:51:02;15.43;;;3.13;;
67749;SDS011;54550;48.838;8.828;2023-03-13T00:53:28;24.45;;;4.03;;
67749;SDS011;54550;48.838;8.828;2023-03-13T00:55:55;20.80;;;3.10;;
67749;SDS011;54550;48.838;8.828;2023-03-13T00:58:33;15.05;;;3.28;;
67749;SDS011;54550;48.838;8.828;2023-03-13T01:01:07;9.30;;;3.30;;
67749;SDS011;54550;48.838;8.828;2023-03-13T01:03:32;16.35;;;3.03;;
67749;SDS011;54550;48.838;8.828;2023-03-13T01:05:59;14.80;;;3.50;;
67749;SDS011;54550;48.838;8.828;2023-03-13T01:08:27;8.55;;;2.65;;
67749;SDS011;54550;48.838;8.828;2023-03-13T01:10:57;21.83;;;3.65;;
67749;SDS011;54550;48.838;8.828;2023-03-13T01:13:31;7.25;;;1.88;;
67749;SDS011;54550;48.838;8.828;2023-03-13T01:16:01;15.00;;;3.83;;
67749;SDS011;54550;48.838;8.828;2023-03-13T01:18:27;27.85;;;3.55;;
67749;SDS011;54550;48.838;8.828;2023-03-13T01:20:53;20.87;;;3.73;;
67749;SDS011;54550;48.838;8.828;2023-03-13T01:23:18;10.80;;;2.70;;
67749;SDS011;54550;48.838;8.828;2023-03-13T01:25:44;15.27;;;3.00;;
67749;SDS011;54550;48.838;8.828;2023-03-13T01:28:10;19.23;;;3.27;;
67749;SDS011;54550;48.838;8.828;2023-03-13T01:30:35;6.83;;;2.33;;
67749;SDS011;54550;48.838;8.828;2023-03-13T01:33:01;14.70;;;2.73;;
67749;SDS011;54550;48.838;8.828;2023-03-13T01:35:27;14.80;;;2.37;;
67749;SDS011;54550;48.838;8.828;2023-03-13T01:37:52;13.80;;;2.77;;
67749;SDS011;54550;48.838;8.828;2023-03-13T01:40:18;8.77;;;2.50;;
67749;SDS011;54550;48.838;8.828;2023-03-13T01:48:15;8.27;;;2.40;;
67749;SDS011;54550;48.838;8.828;2023-03-13T01:50:41;14.13;;;2.80;;
67749;SDS011;54550;48.838;8.828;2023-03-13T01:53:06;22.27;;;2.60;;
67749;SDS011;54550;48.838;8.828;2023-03-13T01:55:32;13.83;;;2.13;;
67749;SDS011;54550;48.838;8.828;2023-03-13T01:57:58;12.38;;;2.40;;
67749;SDS011;54550;48.838;8.828;2023-03-13T02:00:28;19.17;;;2.10;;
67749;SDS011;54550;48.838;8.828;2023-03-13T02:02:57;14.35;;;2.35;;
67749;SDS011;54550;48.838;8.828;2023-03-13T02:05:27;16.02;;;2.92;;
67749;SDS011;54550;48.838;8.828;2023-03-13T02:07:56;9.82;;;2.10;;
67749;SDS011;54550;48.838;8.828;2023-03-13T02:10:30;7.78;;;2.05;;
67749;SDS011;54550;48.838;8.828;2023-03-13T02:13:02;11.50;;;2.55;;
67749;SDS011;54550;48.838;8.828;2023-03-13T02:15:28;6.90;;;2.13;;
67749;SDS011;54550;48.838;8.828;2023-03-13T02:17:55;12.07;;;2.97;;
67749;SDS011;54550;48.838;8.828;2023-03-13T02:20:21;9.23;;;2.58;;
67749;SDS011;54550;48.838;8.828;2023-03-13T02:23:07;12.75;;;4.07;;
67749;SDS011;54550;48.838;8.828;2023-03-13T02:25:45;13.98;;;2.47;;
67749;SDS011;54550;48.838;8.828;2023-03-13T02:28:20;10.15;;;1.75;;
67749;SDS011;54550;48.838;8.828;2023-03-13T02:30:57;12.02;;;3.45;;
67749;SDS011;54550;48.838;8.828;2023-03-13T02:33:27;10.52;;;2.08;;
67749;SDS011;54550;48.838;8.828;2023-03-13T02:35:55;9.63;;;1.60;;
67749;SDS011;54550;48.838;8.828;2023-03-13T02:38:26;7.82;;;1.13;;
67749;SDS011;54550;48.838;8.828;2023-03-13T02:40:53;6.38;;;2.20;;
67749;SDS011;54550;48.838;8.828;2023-03-13T02:43:23;5.80;;;1.50;;
67749;SDS011;54550;48.838;8.828;2023-03-13T02:46:03;4.70;;;1.25;;
67749;SDS011;54550;48.838;8.828;2023-03-13T02:48:38;5.97;;;1.00;;
67749;SDS011;54550;48.838;8.828;2023-03-13T02:51:19;6.82;;;1.17;;
67749;SDS011;54550;48.838;8.828;2023-03-13T02:53:51;1.75;;;0.80;;
67749;SDS011;54550;48.838;8.828;2023-03-13T02:56:20;5.22;;;1.20;;
67749;SDS011;54550;48.838;8.828;2023-03-13T02:58:49;6.88;;;1.65;;
67749;SDS011;54550;48.838;8.828;2023-03-13T03:01:14;7.03;;;1.20;;
67749;SDS011;54550;48.838;8.828;2023-03-13T03:03:40;11.10;;;1.80;;
67749;SDS011;54550;48.838;8.828;2023-03-13T03:06:06;14.10;;;1.77;;
67749;SDS011;54550;48.838;8.828;2023-03-13T03:08:32;3.17;;;1.47;;
67749;SDS011;54550;48.838;8.828;2023-03-13T03:10:58;4.75;;;1.33;;
67749;SDS011;54550;48.838;8.828;2023-03-13T03:13:24;5.50;;;1.23;;
67749;SDS011;54550;48.838;8.828;2023-03-13T03:15:49;5.90;;;1.23;;
67749;SDS011;54550;48.838;8.828;2023-03-13T03:18:15;1.60;;;0.93;;
67749;SDS011;54550;48.838;8.828;2023-03-13T03:20:41;3.10;;;0.90;;
67749;SDS011;54550;48.838;8.828;2023-03-13T03:23:06;2.90;;;1.03;;
67749;SDS011;54550;48.838;8.828;2023-03-13T03:25:32;1.50;;;0.73;;
67749;SDS011;54550;48.838;8.828;2023-03-13T03:27:57;5.73;;;1.40;;
67749;SDS011;54550;48.838;8.828;2023-03-13T03:30:23;9.17;;;1.30;;
67749;SDS011;54550;48.838;8.828;2023-03-13T03:32:48;2.60;;;1.03;;
67749;SDS011;54550;48.838;8.828;2023-03-13T03:35:14;7.27;;;1.40;;
67749;SDS011;54550;48.838;8.828;2023-03-13T03:37:39;4.07;;;0.80;;
67749;SDS011;54550;48.838;8.828;2023-03-13T03:40:05;4.37;;;1.13;;
67749;SDS011;54550;48.838;8.828;2023-03-13T03:42:32;8.20;;;1.20;;
67749;SDS011;54550;48.838;8.828;2023-03-13T03:44:58;4.55;;;1.15;;
67749;SDS011;54550;48.838;8.828;2023-03-13T03:47:24;8.00;;;1.13;;
67749;SDS011;54550;48.838;8.828;2023-03-13T03:49:52;4.80;;;1.07;;
67749;SDS011;54550;48.838;8.828;2023-03-13T03:52:18;1.83;;;0.80;;
67749;SDS011;54550;48.838;8.828;2023-03-13T03:54:43;1.17;;;0.57;;
67749;SDS011;54550;48.838;8.828;2023-03-13T03:57:09;5.77;;;1.43;;
67749;SDS011;54550;48.838;8.828;2023-03-13T03:59:34;2.10;;;0.73;;
67749;SDS011;54550;48.838;8.828;2023-03-13T04:02:00;8.50;;;1.20;;
67749;SDS011;54550;48.838;8.828;2023-03-13T04:04:25;3.73;;;1.27;;
67749;SDS011;54550;48.838;8.828;2023-03-13T04:06:51;2.70;;;1.27;;
67749;SDS011;54550;48.838;8.828;2023-03-13T04:09:17;2.30;;;0.70;;
67749;SDS011;54550;48.838;8.828;2023-03-13T04:11:42;3.30;;;1.30;;
67749;SDS011;54550;48.838;8.828;2023-03-13T04:14:08;1.50;;;1.20;;
67749;SDS011;54550;48.838;8.828;2023-03-13T04:16:34;5.60;;;1.83;;
67749;SDS011;54550;48.838;8.828;2023-03-13T04:18:59;2.10;;;0.93;;
67749;SDS011;54550;48.838;8.828;2023-03-13T04:21:25;3.47;;;0.90;;
67749;SDS011;54550;48.838;8.828;2023-03-13T04:23:50;8.07;;;1.30;;
67749;SDS011;54550;48.838;8.828;2023-03-13T04:26:16;4.00;;;1.50;;
67749;SDS011;54550;48.838;8.828;2023-03-13T04:28:42;2.73;;;0.90;;
67749;SDS011;54550;48.838;8.828;2023-03-13T04:31:07;4.33;;;1.00;;
67749;SDS011;54550;48.838;8.828;2023-03-13T04:33:33;4.10;;;1.20;;
67749;SDS011;54550;48.838;8.828;2023-03-13T04:36:00;7.75;;;1.48;;
67749;SDS011;54550;48.838;8.828;2023-03-13T04:38:26;2.20;;;0.93;;
67749;SDS011;54550;48.838;8.828;2023-03-13T04:40:52;6.00;;;1.80;;
67749;SDS011;54550;48.838;8.828;2023-03-13T04:43:17;3.00;;;0.80;;
67749;SDS011;54550;48.838;8.828;2023-03-13T04:45:43;7.40;;;1.20;;
67749;SDS011;54550;48.838;8.828;2023-03-13T04:48:08;5.00;;;0.90;;
67749;SDS011;54550;48.838;8.828;2023-03-13T04:50:34;2.97;;;1.10;;
67749;SDS011;54550;48.838;8.828;2023-03-13T04:52:59;2.27;;;0.90;;
67749;SDS011;54550;48.838;8.828;2023-03-13T04:55:25;4.57;;;0.90;;
67749;SDS011;54550;48.838;8.828;2023-03-13T04:57:50;3.53;;;0.87;;
67749;SDS011;54550;48.838;8.828;2023-03-13T05:00:16;1.93;;;0.60;;
67749;SDS011;54550;48.838;8.828;2023-03-13T05:02:42;3.63;;;0.77;;
67749;SDS011;54550;48.838;8.828;2023-03-13T05:05:07;0.77;;;0.50;;
67749;SDS011;54550;48.838;8.828;2023-03-13T05:07:33;3.70;;;0.97;;
67749;SDS011;54550;48.838;8.828;2023-03-13T05:09:58;2.33;;;0.63;;
67749;SDS011;54550;48.838;8.828;2023-03-13T05:12:24;2.70;;;0.60;;
67749;SDS011;54550;48.838;8.828;2023-03-13T05:14:49;0.77;;;0.40;;
67749;SDS011;54550;48.838;8.828;2023-03-13T05:17:16;1.13;;;0.70;;
67749;SDS011;54550;48.838;8.828;2023-03-13T05:19:42;1.83;;;0.50;;
67749;SDS011;54550;48.838;8.828;2023-03-13T05:22:07;2.90;;;0.70;;
67749;SDS011;54550;48.838;8.828;2023-03-13T05:24:33;3.87;;;0.90;;
67749;SDS011;54550;48.838;8.828;2023-03-13T05:26:59;2.13;;;0.80;;
67749;SDS011;54550;48.838;8.828;2023-03-13T05:29:24;4.17;;;0.83;;
67749;SDS011;54550;48.838;8.828;2023-03-13T05:31:50;0.90;;;0.60;;
67749;SDS011;54550;48.838;8.828;2023-03-13T05:34:16;1.83;;;0.80;;
67749;SDS011;54550;48.838;8.828;2023-03-13T05:36:42;2.60;;;0.90;;
67749;SDS011;54550;48.838;8.828;2023-03-13T05:39:07;0.73;;;0.47;;
67749;SDS011;54550;48.838;8.828;2023-03-13T05:41:33;1.10;;;0.60;;
67749;SDS011;54550;48.838;8.828;2023-03-13T05:43:58;2.30;;;0.80;;
67749;SDS011;54550;48.838;8.828;2023-03-13T05:46:24;1.20;;;0.60;;
67749;SDS011;54550;48.838;8.828;2023-03-13T05:48:49;1.40;;;0.77;;
67749;SDS011;54550;48.838;8.828;2023-03-13T05:51:16;7.50;;;0.83;;
67749;SDS011;54550;48.838;8.828;2023-03-13T05:53:42;2.03;;;0.77;;
67749;SDS011;54550;48.838;8.828;2023-03-13T05:56:08;0.90;;;0.60;;
67749;SDS011;54550;48.838;8.828;2023-03-13T05:58:33;4.97;;;0.73;;
67749;SDS011;54550;48.838;8.828;2023-03-13T06:00:59;2.50;;;0.97;;
67749;SDS011;54550;48.838;8.828;2023-03-13T06:03:33;0.80;;;0.60;;
67749;SDS011;54550;48.838;8.828;2023-03-13T06:05:59;2.93;;;0.70;;
67749;SDS011;54550;48.838;8.828;2023-03-13T06:08:24;1.33;;;0.67;;
67749;SDS011;54550;48.838;8.828;2023-03-13T06:10:50;1.53;;;0.67;;
67749;SDS011;54550;48.838;8.828;2023-03-13T06:13:15;2.50;;;0.47;;
67749;SDS011;54550;48.838;8.828;2023-03-13T06:15:41;1.53;;;0.67;;
67749;SDS011;54550;48.838;8.828;2023-03-13T06:18:06;0.77;;;0.47;;
67749;SDS011;54550;48.838;8.828;2023-03-13T06:20:32;3.77;;;1.07;;
67749;SDS011;54550;48.838;8.828;2023-03-13T06:22:57;1.23;;;0.50;;
67749;SDS011;54550;48.838;8.828;2023-03-13T06:25:23;3.57;;;0.90;;
67749;SDS011;54550;48.838;8.828;2023-03-13T06:27:49;1.03;;;0.70;;
67749;SDS011;54550;48.838;8.828;2023-03-13T06:30:15;4.00;;;0.83;;
67749;SDS011;54550;48.838;8.828;2023-03-13T06:32:40;0.83;;;0.53;;
67749;SDS011;54550;48.838;8.828;2023-03-13T06:35:06;3.43;;;0.97;;
67749;SDS011;54550;48.838;8.828;2023-03-13T06:37:32;1.90;;;1.20;;
67749;SDS011;54550;48.838;8.828;2023-03-13T06:39:58;1.00;;;0.90;;
67749;SDS011;54550;48.838;8.828;2023-03-13T06:42:23;1.20;;;0.60;;
67749;SDS011;54550;48.838;8.828;2023-03-13T06:44:49;5.27;;;1.10;;
67749;SDS011;54550;48.838;8.828;2023-03-13T06:47:15;3.30;;;1.17;;
67749;SDS011;54550;48.838;8.828;2023-03-13T06:49:40;5.30;;;0.90;;
67749;SDS011;54550;48.838;8.828;2023-03-13T06:52:06;2.27;;;0.70;;
67749;SDS011;54550;48.838;8.828;2023-03-13T06:54:32;2.60;;;1.03;;
67749;SDS011;54550;48.838;8.828;2023-03-13T06:56:57;1.87;;;0.90;;
67749;SDS011;54550;48.838;8.828;2023-03-13T06:59:23;1.27;;;0.60;;
67749;SDS011;54550;48.838;8.828;2023-03-13T07:01:48;1.00;;;0.60;;
67749;SDS011;54550;48.838;8.828;2023-03-13T07:04:14;0.80;;;0.47;;
67749;SDS011;54550;48.838;8.828;2023-03-13T07:06:40;3.77;;;1.40;;
67749;SDS011;54550;48.838;8.828;2023-03-13T07:09:06;0.90;;;0.63;;
67749;SDS011;54550;48.838;8.828;2023-03-13T07:11:31;2.00;;;1.13;;
67749;SDS011;54550;48.838;8.828;2023-03-13T07:13:57;2.60;;;1.00;;
67749;SDS011;54550;48.838;8.828;2023-03-13T07:16:25;1.40;;;0.77;;
67749;SDS011;54550;48.838;8.828;2023-03-13T07:18:51;1.10;;;0.80;;
67749;SDS011;54550;48.838;8.828;2023-03-13T07:21:17;1.53;;;1.00;;
67749;SDS011;54550;48.838;8.828;2023-03-13T07:23:43;2.93;;;1.03;;
67749;SDS011;54550;48.838;8.828;2023-03-13T07:26:10;4.97;;;0.57;;
67749;SDS011;54550;48.838;8.828;2023-03-13T07:28:37;0.80;;;0.50;;
67749;SDS011;54550;48.838;8.828;2023-03-13T07:31:11;1.50;;;0.70;;
67749;SDS011;54550;48.838;8.828;2023-03-13T07:33:41;0.97;;;0.67;;
67749;SDS011;54550;48.838;8.828;2023-03-13T07:36:07;1.43;;;0.90;;
67749;SDS011;54550;48.838;8.828;2023-03-13T07:38:33;1.30;;;0.70;;
67749;SDS011;54550;48.838;8.828;2023-03-13T07:40:59;3.53;;;1.23;;
67749;SDS011;54550;48.838;8.828;2023-03-13T07:43:25;2.83;;;0.60;;
67749;SDS011;54550;48.838;8.828;2023-03-13T07:45:55;1.87;;;0.80;;
67749;SDS011;54550;48.838;8.828;2023-03-13T07:48:23;2.23;;;0.90;;
67749;SDS011;54550;48.838;8.828;2023-03-13T07:50:53;1.00;;;0.70;;
67749;SDS011;54550;48.838;8.828;2023-03-13T07:53:19;1.13;;;0.70;;
67749;SDS011;54550;48.838;8.828;2023-03-13T07:55:58;7.30;;;0.80;;
67749;SDS011;54550;48.838;8.828;2023-03-13T07:58:26;2.03;;;0.60;;
67749;SDS011;54550;48.838;8.828;2023-03-13T08:00:54;2.37;;;2.13;;
67749;SDS011;54550;48.838;8.828;2023-03-13T08:03:20;1.10;;;0.83;;
67749;SDS011;54550;48.838;8.828;2023-03-13T08:05:47;3.80;;;3.40;;
67749;SDS011;54550;48.838;8.828;2023-03-13T08:08:21;0.80;;;0.50;;
67749;SDS011;54550;48.838;8.828;2023-03-13T08:10:46;1.97;;;0.87;;
67749;SDS011;54550;48.838;8.828;2023-03-13T08:13:12;2.13;;;0.80;;
67749;SDS011;54550;48.838;8.828;2023-03-13T08:15:37;2.03;;;1.80;;
67749;SDS011;54550;48.838;8.828;2023-03-13T08:18:03;1.20;;;0.60;;
67749;SDS011;54550;48.838;8.828;2023-03-13T08:20:28;1.03;;;0.60;;
67749;SDS011;54550;48.838;8.828;2023-03-13T08:22:54;4.23;;;1.90;;
67749;SDS011;54550;48.838;8.828;2023-03-13T08:25:21;6.07;;;0.70;;
67749;SDS011;54550;48.838;8.828;2023-03-13T08:27:46;1.30;;;0.63;;
67749;SDS011;54550;48.838;8.828;2023-03-13T08:30:12;0.80;;;0.50;;
67749;SDS011;54550;48.838;8.828;2023-03-13T08:32:38;1.40;;;1.00;;
67749;SDS011;54550;48.838;8.828;2023-03-13T08:35:04;1.23;;;0.50;;
67749;SDS011;54550;48.838;8.828;2023-03-13T08:37:30;3.00;;;0.93;;
67749;SDS011;54550;48.838;8.828;2023-03-13T08:39:55;2.03;;;0.73;;
67749;SDS011;54550;48.838;8.828;2023-03-13T08:42:24;5.43;;;0.83;;
67749;SDS011;54550;48.838;8.828;2023-03-13T08:44:50;2.40;;;0.67;;
67749;SDS011;54550;48.838;8.828;2023-03-13T08:47:16;2.50;;;1.00;;
67749;SDS011;54550;48.838;8.828;2023-03-13T08:49:42;2.30;;;0.67;;
67749;SDS011;54550;48.838;8.828;2023-03-13T08:52:08;0.80;;;0.50;;
67749;SDS011;54550;48.838;8.828;2023-03-13T08:54:34;1.83;;;0.60;;
67749;SDS011;54550;48.838;8.828;2023-03-13T08:56:59;2.00;;;0.90;;
67749;SDS011;54550;48.838;8.828;2023-03-13T08:59:25;0.90;;;0.60;;
67749;SDS011;54550;48.838;8.828;2023-03-13T09:01:51;3.67;;;0.80;;
67749;SDS011;54550;48.838;8.828;2023-03-13T09:04:16;1.13;;;0.83;;
67749;SDS011;54550;48.838;8.828;2023-03-13T09:06:43;0.80;;;0.63;;
67749;SDS011;54550;48.838;8.828;2023-03-13T09:09:08;4.20;;;1.60;;
67749;SDS011;54550;48.838;8.828;2023-03-13T09:11:35;2.10;;;1.00;;
67749;SDS011;54550;48.838;8.828;2023-03-13T09:14:03;1.70;;;1.10;;
67749;SDS011;54550;48.838;8.828;2023-03-13T09:16:30;1.97;;;1.10;;
67749;SDS011;54550;48.838;8.828;2023-03-13T09:18:57;2.77;;;1.00;;
67749;SDS011;54550;48.838;8.828;2023-03-13T09:21:25;1.10;;;0.83;;
67749;SDS011;54550;48.838;8.828;2023-03-13T09:23:53;3.17;;;1.00;;
67749;SDS011;54550;48.838;8.828;2023-03-13T09:26:20;2.70;;;1.33;;
67749;SDS011;54550;48.838;8.828;2023-03-13T09:28:46;2.23;;;1.13;;
67749;SDS011;54550;48.838;8.828;2023-03-13T09:31:13;5.63;;;1.07;;
67749;SDS011;54550;48.838;8.828;2023-03-13T09:33:43;1.43;;;1.00;;
67749;SDS011;54550;48.838;8.828;2023-03-13T09:36:10;7.33;;;1.40;;
67749;SDS011;54550;48.838;8.828;2023-03-13T09:38:36;2.37;;;1.20;;
67749;SDS011;54550;48.838;8.828;2023-03-13T09:41:25;3.57;;;1.10;;
67749;SDS011;54550;48.838;8.828;2023-03-13T09:44:18;1.70;;;1.00;;
67749;SDS011;54550;48.838;8.828;2023-03-13T09:46:59;3.10;;;0.87;;
67749;SDS011;54550;48.838;8.828;2023-03-13T09:49:29;2.80;;;1.03;;
67749;SDS011;54550;48.838;8.828;2023-03-13T09:52:04;2.07;;;1.10;;
67749;SDS011;54550;48.838;8.828;2023-03-13T09:54:36;2.40;;;1.37;;
67749;SDS011;54550;48.838;8.828;2023-03-13T09:57:15;5.97;;;1.23;;
67749;SDS011;54550;48.838;8.828;2023-03-13T10:00:13;2.00;;;0.80;;
67749;SDS011;54550;48.838;8.828;2023-03-13T10:02:47;2.00;;;1.07;;
67749;SDS011;54550;48.838;8.828;2023-03-13T10:05:42;2.80;;;0.90;;
67749;SDS011;54550;48.838;8.828;2023-03-13T10:08:16;1.63;;;1.20;;
67749;SDS011;54550;48.838;8.828;2023-03-13T10:10:47;4.57;;;1.00;;
67749;SDS011;54550;48.838;8.828;2023-03-13T10:16:36;2.70;;;0.90;;
67749;SDS011;54550;48.838;8.828;2023-03-13T10:19:18;6.60;;;3.20;;
67749;SDS011;54550;48.838;8.828;2023-03-13T10:21:52;5.07;;;1.27;;
67749;SDS011;54550;48.838;8.828;2023-03-13T10:26:58;2.73;;;1.37;;
67749;SDS011;54550;48.838;8.828;2023-03-13T10:29:24;3.37;;;1.03;;
67749;SDS011;54550;48.838;8.828;2023-03-13T10:31:54;3.90;;;1.30;;
67749;SDS011;54550;48.838;8.828;2023-03-13T10:34:20;7.80;;;1.50;;
67749;SDS011;54550;48.838;8.828;2023-03-13T10:36:49;8.00;;;1.43;;
67749;SDS011;54550;48.838;8.828;2023-03-13T10:39:23;4.90;;;1.40;;
67749;SDS011;54550;48.838;8.828;2023-03-13T10:41:55;2.30;;;1.10;;
67749;SDS011;54550;48.838;8.828;2023-03-13T10:44:28;5.20;;;0.90;;
67749;SDS011;54550;48.838;8.828;2023-03-13T10:46:57;11.87;;;2.17;;
67749;SDS011;54550;48.838;8.828;2023-03-13T10:49:25;1.70;;;1.20;;
67749;SDS011;54550;48.838;8.828;2023-03-13T10:51:55;2.87;;;1.27;;
67749;SDS011;54550;48.838;8.828;2023-03-13T10:54:24;3.60;;;1.50;;
67749;SDS011;54550;48.838;8.828;2023-03-13T10:59:52;3.87;;;1.30;;
67749;SDS011;54550;48.838;8.828;2023-03-13T11:04:47;6.20;;;1.60;;
67749;SDS011;54550;48.838;8.828;2023-03-13T11:07:24;1.13;;;1.03;;
67749;SDS011;54550;48.838;8.828;2023-03-13T11:10:01;10.70;;;1.30;;
67749;SDS011;54550;48.838;8.828;2023-03-13T11:12:45;2.00;;;1.10;;
67749;SDS011;54550;48.838;8.828;2023-03-13T11:15:17;3.57;;;1.53;;
67749;SDS011;54550;48.838;8.828;2023-03-13T11:17:51;9.00;;;1.30;;
67749;SDS011;54550;48.838;8.828;2023-03-13T11:20:28;3.50;;;1.23;;
67749;SDS011;54550;48.838;8.828;2023-03-13T11:23:04;1.27;;;0.80;;
67749;SDS011;54550;48.838;8.828;2023-03-13T11:26:03;6.10;;;1.37;;
67749;SDS011;54550;48.838;8.828;2023-03-13T11:28:55;2.10;;;1.17;;
67749;SDS011;54550;48.838;8.828;2023-03-13T11:31:38;2.50;;;0.90;;
67749;SDS011;54550;48.838;8.828;2023-03-13T11:37:00;2.57;;;1.13;;
67749;SDS011;54550;48.838;8.828;2023-03-13T11:51:19;18.13;;;1.67;;
67749;SDS011;54550;48.838;8.828;2023-03-13T11:54:00;1.53;;;1.13;;
67749;SDS011;54550;48.838;8.828;2023-03-13T11:56:50;3.47;;;1.23;;
67749;SDS011;54550;48.838;8.828;2023-03-13T11:59:24;1.93;;;0.97;;
67749;SDS011;54550;48.838;8.828;2023-03-13T12:02:27;1.67;;;1.00;;
67749;SDS011;54550;48.838;8.828;2023-03-13T12:05:20;10.33;;;1.57;;
67749;SDS011;54550;48.838;8.828;2023-03-13T12:07:48;2.53;;;1.40;;
67749;SDS011;54550;48.838;8.828;2023-03-13T12:10:17;4.70;;;1.30;;
67749;SDS011;54550;48.838;8.828;2023-03-13T12:12:55;2.27;;;1.50;;
67749;SDS011;54550;48.838;8.828;2023-03-13T12:15:27;1.23;;;1.07;;
67749;SDS011;54550;48.838;8.828;2023-03-13T12:18:22;4.33;;;1.30;;
67749;SDS011;54550;48.838;8.828;2023-03-13T12:21:27;4.40;;;1.13;;
67749;SDS011;54550;48.838;8.828;2023-03-13T12:23:45;2.70;;;0.90;;
67749;SDS011;54550;48.838;8.828;2023-03-13T12:27:25;3.70;;;1.13;;
67749;SDS011;54550;48.838;8.828;2023-03-13T12:31:56;2.80;;;1.20;;
67749;SDS011;54550;48.838;8.828;2023-03-13T12:34:58;6.13;;;1.20;;
67749;SDS011;54550;48.838;8.828;2023-03-13T12:43:16;4.60;;;2.43;;
67749;SDS011;54550;48.838;8.828;2023-03-13T12:46:20;2.73;;;1.13;;
67749;SDS011;54550;48.838;8.828;2023-03-13T12:59:33;2.27;;;1.20;;
67749;SDS011;54550;48.838;8.828;2023-03-13T13:02:02;2.33;;;0.90;;
67749;SDS011;54550;48.838;8.828;2023-03-13T13:04:44;7.90;;;0.83;;
67749;SDS011;54550;48.838;8.828;2023-03-13T13:07:22;4.70;;;0.73;;
67749;SDS011;54550;48.838;8.828;2023-03-13T13:12:34;3.27;;;1.40;;
67749;SDS011;54550;48.838;8.828;2023-03-13T13:15:02;6.70;;;2.63;;
67749;SDS011;54550;48.838;8.828;2023-03-13T13:25:46;1.27;;;0.90;;
67749;SDS011;54550;48.838;8.828;2023-03-13T13:30:46;2.30;;;1.13;;
67749;SDS011;54550;48.838;8.828;2023-03-13T13:36:24;2.03;;;1.23;;
67749;SDS011;54550;48.838;8.828;2023-03-13T13:38:45;2.63;;;1.30;;
67749;SDS011;54550;48.838;8.828;2023-03-13T13:43:41;2.60;;;0.73;;
67749;SDS011;54550;48.838;8.828;2023-03-13T13:51:34;1.10;;;0.63;;
67749;SDS011;54550;48.838;8.828;2023-03-13T13:56:58;1.20;;;0.67;;
67749;SDS011;54550;48.838;8.828;2023-03-13T13:59:38;1.37;;;0.57;;
67749;SDS011;54550;48.838;8.828;2023-03-13T14:04:33;1.13;;;0.50;;
67749;SDS011;54550;48.838;8.828;2023-03-13T14:07:01;7.00;;;0.77;;
67749;SDS011;54550;48.838;8.828;2023-03-13T14:11:56;2.40;;;0.70;;
67749;SDS011;54550;48.838;8.828;2023-03-13T14:14:22;7.40;;;0.70;;
67749;SDS011;54550;48.838;8.828;2023-03-13T14:16:48;5.93;;;0.73;;
67749;SDS011;54550;48.838;8.828;2023-03-13T14:19:20;2.20;;;1.03;;
67749;SDS011;54550;48.838;8.828;2023-03-13T14:21:55;5.80;;;0.70;;
67749;SDS011;54550;48.838;8.828;2023-03-13T14:24:32;1.67;;;0.67;;
67749;SDS011;54550;48.838;8.828;2023-03-13T14:26:58;0.87;;;0.60;;
67749;SDS011;54550;48.838;8.828;2023-03-13T14:29:24;3.13;;;0.50;;
67749;SDS011;54550;48.838;8.828;2023-03-13T14:31:54;1.33;;;0.50;;
67749;SDS011;54550;48.838;8.828;2023-03-13T14:34:21;5.87;;;0.60;;
67749;SDS011;54550;48.838;8.828;2023-03-13T14:36:54;17.40;;;1.87;;
67749;SDS011;54550;48.838;8.828;2023-03-13T14:42:00;1.87;;;1.00;;
67749;SDS011;54550;48.838;8.828;2023-03-13T14:44:28;2.60;;;1.10;;
67749;SDS011;54550;48.838;8.828;2023-03-13T14:46:57;1.30;;;0.80;;
67749;SDS011;54550;48.838;8.828;2023-03-13T14:49:27;3.77;;;1.00;;
67749;SDS011;54550;48.838;8.828;2023-03-13T14:52:02;1.63;;;0.80;;
67749;SDS011;54550;48.838;8.828;2023-03-13T14:54:31;11.33;;;0.60;;
67749;SDS011;54550;48.838;8.828;2023-03-13T14:57:31;3.80;;;1.07;;
67749;SDS011;54550;48.838;8.828;2023-03-13T14:59:51;5.43;;;1.17;;
67749;SDS011;54550;48.838;8.828;2023-03-13T15:02:19;1.93;;;1.00;;
67749;SDS011;54550;48.838;8.828;2023-03-13T15:07:13;1.30;;;0.80;;
67749;SDS011;54550;48.838;8.828;2023-03-13T15:09:43;11.23;;;1.00;;
67749;SDS011;54550;48.838;8.828;2023-03-13T15:12:13;2.20;;;1.17;;
67749;SDS011;54550;48.838;8.828;2023-03-13T15:14:42;1.33;;;0.67;;
67749;SDS011;54550;48.838;8.828;2023-03-13T15:17:13;3.17;;;1.10;;
67749;SDS011;54550;48.838;8.828;2023-03-13T15:19:47;1.03;;;0.70;;
67749;SDS011;54550;48.838;8.828;2023-03-13T15:22:19;3.73;;;0.93;;
67749;SDS011;54550;48.838;8.828;2023-03-13T15:24:56;2.10;;;1.30;;
67749;SDS011;54550;48.838;8.828;2023-03-13T15:27:23;1.80;;;0.97;;
67749;SDS011;54550;48.838;8.828;2023-03-13T15:29:50;1.97;;;1.00;;
67749;SDS011;54550;48.838;8.828;2023-03-13T15:32:29;14.40;;;1.50;;
67749;SDS011;54550;48.838;8.828;2023-03-13T15:34:58;1.40;;;0.97;;
67749;SDS011;54550;48.838;8.828;2023-03-13T15:37:26;1.83;;;0.87;;
67749;SDS011;54550;48.838;8.828;2023-03-13T15:39:52;1.17;;;1.03;;
67749;SDS011;54550;48.838;8.828;2023-03-13T15:42:18;5.73;;;0.73;;
67749;SDS011;54550;48.838;8.828;2023-03-13T15:44:44;2.60;;;1.07;;
67749;SDS011;54550;48.838;8.828;2023-03-13T15:47:20;1.30;;;0.90;;
67749;SDS011;54550;48.838;8.828;2023-03-13T15:49:46;5.93;;;1.20;;
67749;SDS011;54550;48.838;8.828;2023-03-13T15:52:13;1.43;;;0.97;;
67749;SDS011;54550;48.838;8.828;2023-03-13T15:54:47;2.00;;;1.10;;
67749;SDS011;54550;48.838;8.828;2023-03-13T15:57:14;1.90;;;1.20;;
67749;SDS011;54550;48.838;8.828;2023-03-13T15:59:44;6.70;;;0.60;;
67749;SDS011;54550;48.838;8.828;2023-03-13T16:02:42;1.00;;;0.60;;
67749;SDS011;54550;48.838;8.828;2023-03-13T16:05:01;1.53;;;0.73;;
67749;SDS011;54550;48.838;8.828;2023-03-13T16:07:28;1.00;;;0.70;;
67749;SDS011;54550;48.838;8.828;2023-03-13T16:09:54;3.07;;;1.10;;
67749;SDS011;54550;48.838;8.828;2023-03-13T16:12:19;1.67;;;0.87;;
67749;SDS011;54550;48.838;8.828;2023-03-13T16:14:45;4.97;;;1.00;;
67749;SDS011;54550;48.838;8.828;2023-03-13T16:17:12;1.93;;;1.00;;
67749;SDS011;54550;48.838;8.828;2023-03-13T16:19:39;2.23;;;1.07;;
67749;SDS011;54550;48.838;8.828;2023-03-13T16:22:05;1.00;;;0.57;;
67749;SDS011;54550;48.838;8.828;2023-03-13T16:24:30;3.40;;;1.00;;
67749;SDS011;54550;48.838;8.828;2023-03-13T16:26:56;1.60;;;0.97;;